createdAt,value
2019-02-19T00:01:04.275Z,50.53
2019-02-19T00:03:38.117Z,54.43
2019-02-19T00:06:12.086Z,56.47
2019-02-19T00:08:45.407Z,46.73
2019-02-19T00:11:19.499Z,58.70
2019-02-19T00:13:55.627Z,53.87
2019-02-19T00:16:29.538Z,58.07
2019-02-19T00:19:03.473Z,38.00
2019-02-19T00:21:37.101Z,46.37
2019-02-19T00:24:13.025Z,39.93
2019-02-19T00:26:47.078Z,42.97
2019-02-19T00:29:20.716Z,68.87
2019-02-19T00:31:53.921Z,48.20
2019-02-19T00:34:27.705Z,36.43
2019-02-19T00:37:01.526Z,50.80
2019-02-19T00:39:37.650Z,35.93
2019-02-19T00:42:11.924Z,41.27
2019-02-19T00:44:45.896Z,54.30
2019-02-19T00:47:19.726Z,48.03
2019-02-19T00:49:54.154Z,38.67
2019-02-19T00:52:27.823Z,35.07
2019-02-19T00:55:01.716Z,37.97
2019-02-19T00:57:35.285Z,50.07
2019-02-19T01:00:11.145Z,32.43
2019-02-19T01:02:46.128Z,39.40
2019-02-19T01:05:19.691Z,31.27
2019-02-19T01:07:53.950Z,37.90
2019-02-19T01:10:27.475Z,41.53
2019-02-19T01:13:01.507Z,46.30
2019-02-19T01:15:35.512Z,39.30
2019-02-19T01:18:09.241Z,51.07
2019-02-19T01:20:42.937Z,35.47
2019-02-19T01:23:16.679Z,62.03
2019-02-19T01:25:50.297Z,49.07
2019-02-19T01:28:24.237Z,40.17
2019-02-19T01:30:57.945Z,55.27
2019-02-19T01:33:31.916Z,51.40
2019-02-19T01:36:05.702Z,43.00
2019-02-19T01:38:39.645Z,40.43
2019-02-19T01:41:13.323Z,36.23
2019-02-19T01:43:47.400Z,33.40
2019-02-19T01:46:21.185Z,30.10
2019-02-19T01:48:55.199Z,34.03
2019-02-19T01:51:29.297Z,29.83
2019-02-19T01:54:02.563Z,35.83
2019-02-19T01:56:36.252Z,37.77
2019-02-19T01:59:09.692Z,48.07
2019-02-19T02:01:43.794Z,46.63
2019-02-19T02:04:18.355Z,29.87
2019-02-19T02:06:51.992Z,27.63
2019-02-19T02:09:25.563Z,35.43
2019-02-19T02:11:59.361Z,27.43
2019-02-19T02:14:33.871Z,28.67
2019-02-19T02:17:07.298Z,33.00
2019-02-19T02:19:41.224Z,32.53
2019-02-19T02:22:14.955Z,33.97
2019-02-19T02:24:48.769Z,29.03
2019-02-19T02:27:24.494Z,27.43
2019-02-19T02:29:58.347Z,30.40
2019-02-19T02:32:34.471Z,31.07
2019-02-19T02:35:11.254Z,27.60
2019-02-19T02:37:44.627Z,30.27
2019-02-19T02:40:18.866Z,27.90
2019-02-19T02:42:52.347Z,28.13
2019-02-19T02:45:27.339Z,21.20
2019-02-19T02:48:00.959Z,29.03
2019-02-19T02:50:36.621Z,20.70
2019-02-19T02:53:10.727Z,21.73
2019-02-19T02:55:44.263Z,24.17
2019-02-19T02:58:18.520Z,30.77
2019-02-19T03:00:52.282Z,25.10
2019-02-19T03:03:27.348Z,21.43
2019-02-19T03:06:31.634Z,24.33
2019-02-19T03:09:06.618Z,20.87
2019-02-19T03:11:42.093Z,23.27
2019-02-19T03:14:15.750Z,24.73
2019-02-19T03:16:49.754Z,21.13
2019-02-19T03:19:23.596Z,20.53
2019-02-19T03:21:57.536Z,20.97
2019-02-19T03:24:31.197Z,24.87
2019-02-19T03:27:05.572Z,37.63
2019-02-19T03:29:39.319Z,35.00
2019-02-19T03:32:13.414Z,28.47
2019-02-19T03:34:47.208Z,23.60
2019-02-19T03:37:21.405Z,26.83
2019-02-19T03:39:57.276Z,26.67
2019-02-19T03:42:31.453Z,29.00
2019-02-19T03:45:05.123Z,28.83
2019-02-19T03:47:38.967Z,23.70
2019-02-19T03:50:12.716Z,24.37
2019-02-19T03:52:46.795Z,19.70
2019-02-19T03:55:20.878Z,21.77
2019-02-19T03:57:57.003Z,34.70
2019-02-19T04:00:31.086Z,21.27
2019-02-19T04:03:06.982Z,42.00
2019-02-19T04:05:41.721Z,36.33
2019-02-19T04:08:16.601Z,35.33
2019-02-19T04:10:50.275Z,59.63
2019-02-19T04:13:26.012Z,27.17
2019-02-19T04:15:59.792Z,24.67
2019-02-19T04:18:33.715Z,20.97
2019-02-19T04:21:07.455Z,21.53
2019-02-19T04:23:43.345Z,18.33
2019-02-19T04:26:17.427Z,17.73
2019-02-19T04:28:51.329Z,22.13
2019-02-19T04:31:24.930Z,25.37
2019-02-19T04:33:58.912Z,21.40
2019-02-19T04:36:32.640Z,25.13
2019-02-19T04:39:07.061Z,20.93
2019-02-19T04:41:40.733Z,21.37
2019-02-19T04:44:14.539Z,36.27
2019-02-19T04:46:48.837Z,47.03
2019-02-19T04:49:22.568Z,56.73
2019-02-19T04:51:56.320Z,30.97
2019-02-19T04:54:30.172Z,22.53
2019-02-19T04:57:04.405Z,25.97
2019-02-19T04:59:38.023Z,28.33
2019-02-19T05:02:12.079Z,29.57
2019-02-19T05:04:45.629Z,27.00
2019-02-19T05:07:19.653Z,24.97
2019-02-19T05:09:54.955Z,20.40
2019-02-19T05:12:30.911Z,19.57
2019-02-19T05:15:04.784Z,24.30
2019-02-19T05:17:38.399Z,21.73
2019-02-19T05:20:12.570Z,28.47
2019-02-19T05:22:46.769Z,21.83
2019-02-19T05:25:20.946Z,20.20
2019-02-19T05:27:54.527Z,32.30
2019-02-19T05:30:28.454Z,28.43
2019-02-19T05:33:02.111Z,29.97
2019-02-19T05:35:36.288Z,30.83
2019-02-19T05:38:09.915Z,32.50
2019-02-19T05:40:43.908Z,26.50
2019-02-19T05:43:20.151Z,26.97
2019-02-19T05:45:54.557Z,33.23
2019-02-19T05:48:28.409Z,31.43
2019-02-19T05:51:02.388Z,32.73
2019-02-19T05:53:36.848Z,33.17
2019-02-19T05:56:10.975Z,33.33
2019-02-19T05:58:45.072Z,28.50
2019-02-19T06:01:18.757Z,34.47
2019-02-19T06:03:52.853Z,50.60
2019-02-19T06:06:26.355Z,34.13
2019-02-19T06:09:00.628Z,37.53
2019-02-19T06:11:36.513Z,50.70
2019-02-19T06:14:10.139Z,42.47
2019-02-19T06:16:44.361Z,60.67
2019-02-19T06:19:18.297Z,60.97
2019-02-19T06:21:52.926Z,48.67
2019-02-19T06:24:27.009Z,64.67
2019-02-19T06:27:01.982Z,53.80
2019-02-19T06:29:36.918Z,50.37
2019-02-19T06:32:11.748Z,62.57
2019-02-19T06:34:46.854Z,40.00
2019-02-19T06:37:21.897Z,61.17
2019-02-19T06:39:55.751Z,45.93
2019-02-19T06:42:30.616Z,50.63
2019-02-19T06:45:05.039Z,57.80
2019-02-19T06:47:39.159Z,51.97
2019-02-19T06:50:13.709Z,61.10
2019-02-19T06:52:47.938Z,71.63
2019-02-19T06:55:22.886Z,47.23
2019-02-19T06:57:57.550Z,57.03
2019-02-19T07:00:31.828Z,51.77
2019-02-19T07:03:38.886Z,68.47
2019-02-19T07:06:13.918Z,60.30
2019-02-19T07:08:48.377Z,71.07
2019-02-19T07:11:22.533Z,63.80
2019-02-19T07:13:58.618Z,68.80
2019-02-19T07:16:34.177Z,56.27
2019-02-19T07:19:09.244Z,51.10
2019-02-19T07:21:44.450Z,47.07
2019-02-19T07:24:18.699Z,51.20
2019-02-19T07:26:53.179Z,47.67
2019-02-19T07:29:27.576Z,46.43
2019-02-19T07:32:03.108Z,56.20
2019-02-19T07:34:37.185Z,62.47
2019-02-19T07:37:11.837Z,43.47
2019-02-19T07:39:46.757Z,46.10
2019-02-19T07:42:21.623Z,41.63
2019-02-19T07:44:56.175Z,46.17
2019-02-19T07:47:31.109Z,38.53
2019-02-19T07:50:06.759Z,33.97
2019-02-19T07:52:42.637Z,37.73
2019-02-19T07:55:18.263Z,37.50
2019-02-19T07:57:53.668Z,40.13
2019-02-19T08:00:28.643Z,48.73
2019-02-19T08:03:05.661Z,30.97
2019-02-19T08:05:41.288Z,29.30
2019-02-19T08:08:16.107Z,42.73
2019-02-19T08:10:51.647Z,50.40
2019-02-19T08:13:25.691Z,43.73
2019-02-19T08:15:59.977Z,42.00
2019-02-19T08:18:34.494Z,40.30
2019-02-19T08:21:09.403Z,54.57
2019-02-19T08:23:43.412Z,58.23
2019-02-19T08:26:18.167Z,55.17
2019-02-19T08:28:52.324Z,48.53
2019-02-19T08:31:25.706Z,45.43
2019-02-19T08:34:02.039Z,27.20
2019-02-19T08:36:36.605Z,31.80
2019-02-19T08:39:11.005Z,26.50
2019-02-19T08:41:46.575Z,25.70
2019-02-19T08:44:21.104Z,27.70
2019-02-19T08:46:56.577Z,25.37
2019-02-19T08:49:30.755Z,24.77
2019-02-19T08:52:06.052Z,62.60
2019-02-19T08:54:40.832Z,37.60
2019-02-19T08:57:16.605Z,25.03
2019-02-19T08:59:52.339Z,27.73
2019-02-19T09:02:27.352Z,28.13
2019-02-19T09:05:01.580Z,29.27
2019-02-19T09:07:36.210Z,29.57
2019-02-19T09:10:20.776Z,27.10
2019-02-19T09:12:59.700Z,25.10
2019-02-19T09:15:33.713Z,27.20
2019-02-19T09:18:08.332Z,20.17
2019-02-19T09:20:45.309Z,29.90
2019-02-19T09:23:19.789Z,34.77
2019-02-19T09:25:53.498Z,30.47
2019-02-19T09:28:28.771Z,28.13
2019-02-19T09:31:02.605Z,30.77
2019-02-19T09:33:38.106Z,34.10
2019-02-19T09:36:14.482Z,23.83
2019-02-19T09:38:50.483Z,15.50
2019-02-19T09:41:25.065Z,23.93
2019-02-19T09:44:01.221Z,22.20
2019-02-19T09:46:37.004Z,25.10
2019-02-19T09:49:15.069Z,28.63
2019-02-19T09:51:55.175Z,28.77
2019-02-19T09:54:34.684Z,26.50
2019-02-19T09:57:13.521Z,28.57
2019-02-19T09:59:49.221Z,17.37
2019-02-19T10:02:25.667Z,26.57
2019-02-19T10:05:00.867Z,23.37
2019-02-19T10:07:35.310Z,25.37
2019-02-19T10:10:13.690Z,23.00
2019-02-19T10:12:49.113Z,19.80
2019-02-19T10:15:24.371Z,18.23
2019-02-19T10:18:00.152Z,17.83
2019-02-19T10:20:37.345Z,13.33
2019-02-19T10:23:11.735Z,14.10
2019-02-19T10:25:54.051Z,20.37
2019-02-19T10:28:30.351Z,14.90
2019-02-19T10:31:08.334Z,26.13
2019-02-19T10:33:41.526Z,18.77
2019-02-19T10:36:17.405Z,14.37
2019-02-19T10:38:51.553Z,15.57
2019-02-19T10:41:26.622Z,14.20
2019-02-19T10:44:00.181Z,25.10
2019-02-19T10:46:34.938Z,14.40
2019-02-19T10:49:09.523Z,24.30
2019-02-19T10:51:46.970Z,14.40
2019-02-19T10:54:22.543Z,18.13
2019-02-19T10:56:59.756Z,16.87
2019-02-19T10:59:34.234Z,13.07
2019-02-19T11:02:10.452Z,19.07
2019-02-19T11:04:46.423Z,16.17
2019-02-19T11:07:21.409Z,14.93
2019-02-19T11:09:58.291Z,18.20
2019-02-19T11:12:37.368Z,21.03
2019-02-19T11:15:12.730Z,16.60
2019-02-19T11:17:46.921Z,20.50
2019-02-19T11:20:22.570Z,19.73
2019-02-19T11:22:58.909Z,17.53
2019-02-19T11:25:33.234Z,27.73
2019-02-19T11:28:10.213Z,28.10
2019-02-19T11:30:49.210Z,18.57
2019-02-19T11:33:24.967Z,13.27
2019-02-19T11:35:59.485Z,13.10
2019-02-19T11:38:34.069Z,18.30
2019-02-19T11:41:09.965Z,18.87
2019-02-19T11:43:46.203Z,19.10
2019-02-19T11:46:21.207Z,16.63
2019-02-19T11:48:56.619Z,16.17
2019-02-19T11:51:30.686Z,19.30
2019-02-19T11:54:05.631Z,18.33
2019-02-19T11:56:40.380Z,18.97
2019-02-19T11:59:15.101Z,16.97
2019-02-19T12:01:50.459Z,17.10
2019-02-19T12:04:25.690Z,15.27
2019-02-19T12:07:00.747Z,17.87
2019-02-19T12:09:37.141Z,23.13
2019-02-19T12:12:13.418Z,19.70
2019-02-19T12:14:50.662Z,13.93
2019-02-19T12:17:26.382Z,15.77
2019-02-19T12:20:01.782Z,14.97
2019-02-19T12:22:36.907Z,16.30
2019-02-19T12:25:13.391Z,19.60
2019-02-19T12:27:49.565Z,16.90
2019-02-19T12:30:24.414Z,18.40
2019-02-19T12:32:59.084Z,18.13
2019-02-19T12:35:33.487Z,15.67
2019-02-19T12:38:08.239Z,17.10
2019-02-19T12:40:44.247Z,19.30
2019-02-19T12:43:19.505Z,19.70
2019-02-19T12:45:56.406Z,19.47
2019-02-19T12:48:33.867Z,18.40
2019-02-19T12:51:08.951Z,18.93
2019-02-19T12:53:44.482Z,21.07
2019-02-19T12:56:21.694Z,20.17
2019-02-19T12:58:57.014Z,17.57
2019-02-19T13:01:34.897Z,19.17
2019-02-19T13:04:12.417Z,21.97
2019-02-19T13:06:47.959Z,15.47
2019-02-19T13:09:22.312Z,18.73
2019-02-19T13:11:56.589Z,18.57
2019-02-19T13:14:31.129Z,19.97
2019-02-19T13:17:05.799Z,21.17
2019-02-19T13:19:41.690Z,18.17
2019-02-19T13:22:17.056Z,22.07
2019-02-19T13:24:51.372Z,15.37
2019-02-19T13:27:27.520Z,23.57
2019-02-19T13:30:02.918Z,15.87
2019-02-19T13:32:39.447Z,17.40
2019-02-19T13:35:15.937Z,17.10
2019-02-19T13:37:51.160Z,16.50
2019-02-19T13:40:26.895Z,16.30
2019-02-19T13:43:01.224Z,18.47
2019-02-19T13:45:35.197Z,24.13
2019-02-19T13:48:10.915Z,17.57
2019-02-19T13:50:44.812Z,19.70
2019-02-19T13:53:40.321Z,19.33
2019-02-19T13:56:14.857Z,15.33
2019-02-19T13:58:49.626Z,15.97
2019-02-19T14:01:24.108Z,18.93
2019-02-19T14:04:02.698Z,19.10
2019-02-19T14:06:37.255Z,15.50
2019-02-19T14:09:12.070Z,20.10
2019-02-19T14:11:50.234Z,16.03
2019-02-19T14:14:45.254Z,19.10
2019-02-19T14:17:24.244Z,18.60
2019-02-19T14:20:06.395Z,18.00
2019-02-19T14:23:10.048Z,17.03
2019-02-19T14:25:56.987Z,17.00
2019-02-19T14:28:56.865Z,21.37
2019-02-19T14:31:50.691Z,16.60
2019-02-19T14:34:52.647Z,22.00
2019-02-19T14:37:46.668Z,19.10
2019-02-19T14:40:36.722Z,16.27
2019-02-19T14:43:29.546Z,21.20
2019-02-19T14:46:39.535Z,18.67
2019-02-19T14:49:37.102Z,23.63
2019-02-19T14:52:29.377Z,20.70
2019-02-19T14:55:17.803Z,20.30
2019-02-19T14:58:20.573Z,21.00
2019-02-19T15:01:14.283Z,18.97
2019-02-19T15:04:07.461Z,20.17
2019-02-19T15:07:01.641Z,22.73
2019-02-19T15:09:57.546Z,19.97
2019-02-19T15:12:46.386Z,21.03
2019-02-19T15:15:43.320Z,20.10
2019-02-19T15:18:35.043Z,23.37
2019-02-19T15:21:26.025Z,24.40
2019-02-19T15:24:29.412Z,31.77
2019-02-19T15:27:15.806Z,26.57
2019-02-19T15:30:12.818Z,25.47
2019-02-19T15:33:08.531Z,24.63
2019-02-19T15:36:00.173Z,24.10
2019-02-19T15:38:55.438Z,25.63
2019-02-19T15:42:04.235Z,22.67
2019-02-19T15:44:58.057Z,24.70
2019-02-19T15:48:00.990Z,25.50
2019-02-19T15:51:01.205Z,24.70
2019-02-19T15:53:55.335Z,30.37
2019-02-19T15:56:48.324Z,31.60
2019-02-19T15:59:37.137Z,31.90
2019-02-19T16:02:41.290Z,30.00
2019-02-19T16:05:47.193Z,33.67
2019-02-19T16:08:41.711Z,32.53
2019-02-19T16:11:42.489Z,31.33
2019-02-19T16:14:25.225Z,29.10
2019-02-19T16:17:26.431Z,29.03
2019-02-19T16:20:37.664Z,35.07
2019-02-19T16:23:32.439Z,30.00
2019-02-19T16:26:37.695Z,34.93
2019-02-19T16:29:31.578Z,38.27
2019-02-19T16:32:28.939Z,45.83
2019-02-19T16:35:35.121Z,34.47
2019-02-19T16:38:30.763Z,40.37
2019-02-19T16:41:27.884Z,34.87
2019-02-19T16:44:20.764Z,37.70
2019-02-19T16:47:30.165Z,33.60
2019-02-19T16:50:32.051Z,39.13
2019-02-19T16:53:26.080Z,43.20
2019-02-19T16:56:03.947Z,38.77
2019-02-19T16:59:08.282Z,45.83
2019-02-19T17:02:13.544Z,43.77
2019-02-19T17:05:08.643Z,41.80
2019-02-19T17:07:54.966Z,48.17
2019-02-19T17:11:05.894Z,44.17
2019-02-19T17:14:03.459Z,46.93
2019-02-19T17:17:08.735Z,46.83
2019-02-19T17:20:21.174Z,47.20
2019-02-19T17:23:22.684Z,49.97
2019-02-19T17:26:12.588Z,49.87
2019-02-19T17:29:07.079Z,51.33
2019-02-19T17:32:08.465Z,55.63
2019-02-19T17:35:01.675Z,70.00
2019-02-19T17:37:59.083Z,52.83
2019-02-19T17:40:51.254Z,57.53
2019-02-19T17:43:39.737Z,55.13
2019-02-19T17:46:42.858Z,55.37
2019-02-19T17:49:25.122Z,56.90
2019-02-19T17:52:18.512Z,74.30
2019-02-19T17:55:19.501Z,72.50
2019-02-19T17:58:14.122Z,71.30
2019-02-19T18:01:04.677Z,69.27
2019-02-19T18:03:59.308Z,64.17
2019-02-19T18:07:04.652Z,86.50
2019-02-19T18:10:08.824Z,68.87
2019-02-19T18:13:00.921Z,54.43
2019-02-19T18:15:55.156Z,48.30
2019-02-19T18:18:54.787Z,56.30
2019-02-19T18:21:28.914Z,57.93
2019-02-19T18:24:03.078Z,66.03
2019-02-19T18:26:37.634Z,68.40
2019-02-19T18:29:12.215Z,63.17
2019-02-19T18:31:48.191Z,72.13
2019-02-19T18:34:22.280Z,85.53
2019-02-19T18:36:57.360Z,78.47
2019-02-19T18:39:32.602Z,78.77
2019-02-19T18:42:06.657Z,77.93
2019-02-19T18:44:40.775Z,69.07
2019-02-19T18:47:15.006Z,76.80
2019-02-19T18:49:49.331Z,80.57
2019-02-19T18:52:23.269Z,93.77
2019-02-19T18:54:57.897Z,92.03
2019-02-19T18:57:32.007Z,107.67
2019-02-19T19:00:07.354Z,106.47
2019-02-19T19:02:43.984Z,124.63
2019-02-19T19:05:18.835Z,111.80
2019-02-19T19:07:55.213Z,131.60
2019-02-19T19:10:30.864Z,138.37
2019-02-19T19:13:05.503Z,126.50
2019-02-19T19:15:40.385Z,130.90
2019-02-19T19:18:19.090Z,147.20
2019-02-19T19:20:52.665Z,126.50
2019-02-19T19:23:27.018Z,130.53
2019-02-19T19:26:01.243Z,121.37
2019-02-19T19:28:35.852Z,139.47
2019-02-19T19:31:11.814Z,125.70
2019-02-19T19:33:47.458Z,126.40
2019-02-19T19:36:21.553Z,117.37
2019-02-19T19:38:56.818Z,124.37
2019-02-19T19:41:33.016Z,121.63
2019-02-19T19:44:08.973Z,105.30
2019-02-19T19:46:44.245Z,115.83
2019-02-19T19:49:21.045Z,116.13
2019-02-19T19:51:55.496Z,132.80
2019-02-19T19:54:30.011Z,113.00
2019-02-19T19:57:04.879Z,120.47
2019-02-19T19:59:39.256Z,88.90
2019-02-19T20:02:13.371Z,94.77
2019-02-19T20:04:47.370Z,94.87
2019-02-19T20:07:22.352Z,97.73
2019-02-19T20:09:58.514Z,120.37
2019-02-19T20:12:33.081Z,100.90
2019-02-19T20:15:07.546Z,98.93
2019-02-19T20:17:41.750Z,99.10
2019-02-19T20:20:15.570Z,106.23
2019-02-19T20:22:51.512Z,108.23
2019-02-19T20:25:25.472Z,107.90
2019-02-19T20:28:00.746Z,93.03
2019-02-19T20:30:37.188Z,91.57
2019-02-19T20:33:11.767Z,81.33
2019-02-19T20:35:47.183Z,84.60
2019-02-19T20:38:21.428Z,83.70
2019-02-19T20:40:56.264Z,91.70
2019-02-19T20:43:30.614Z,74.33
2019-02-19T20:46:05.449Z,85.50
2019-02-19T20:48:39.970Z,79.43
2019-02-19T20:51:13.703Z,82.10
2019-02-19T20:53:47.747Z,82.97
2019-02-19T20:56:21.512Z,62.63
2019-02-19T20:58:55.494Z,66.97
2019-02-19T21:01:29.382Z,73.87
2019-02-19T21:04:03.710Z,73.97
2019-02-19T21:06:37.480Z,86.83
2019-02-19T21:09:11.705Z,95.97
2019-02-19T21:11:46.070Z,76.50
2019-02-19T21:14:20.396Z,77.50
2019-02-19T21:16:54.878Z,84.83
2019-02-19T21:19:29.685Z,67.33
2019-02-19T21:22:03.368Z,79.03
2019-02-19T21:24:38.757Z,63.63
2019-02-19T21:27:14.000Z,85.17
2019-02-19T21:29:48.544Z,65.17
2019-02-19T21:32:22.724Z,72.87
2019-02-19T21:34:57.760Z,89.27
2019-02-19T21:37:33.998Z,70.47
2019-02-19T21:40:09.598Z,65.00
2019-02-19T21:42:45.544Z,96.93
2019-02-19T21:45:19.577Z,100.23
2019-02-19T21:47:53.298Z,85.03
2019-02-19T21:50:26.856Z,57.73
2019-02-19T21:53:03.713Z,68.90
2019-02-19T21:55:38.187Z,63.97
2019-02-19T21:58:12.428Z,90.00
2019-02-19T22:00:46.120Z,60.27
2019-02-19T22:03:22.308Z,67.73
2019-02-19T22:05:56.280Z,58.30
2019-02-19T22:08:29.956Z,64.03
2019-02-19T22:11:04.446Z,47.07
2019-02-19T22:13:38.126Z,56.00
2019-02-19T22:16:12.646Z,54.30
2019-02-19T22:18:46.459Z,58.87
2019-02-19T22:21:38.905Z,58.67
2019-02-19T22:24:12.605Z,58.70
2019-02-19T22:26:47.148Z,67.33
2019-02-19T22:29:21.302Z,57.03
2019-02-19T22:31:55.265Z,64.60
2019-02-19T22:34:31.426Z,68.73
2019-02-19T22:37:05.815Z,52.20
2019-02-19T22:39:39.549Z,64.50
2019-02-19T22:42:13.586Z,48.97
2019-02-19T22:44:48.597Z,51.60
2019-02-19T22:47:23.622Z,50.47
2019-02-19T22:49:57.528Z,43.70
2019-02-19T22:52:31.712Z,82.20
2019-02-19T22:55:12.931Z,71.83
2019-02-19T22:57:47.092Z,47.73
2019-02-19T23:00:38.957Z,54.00
2019-02-19T23:03:15.020Z,48.70
2019-02-19T23:05:48.962Z,50.40
2019-02-19T23:08:24.159Z,43.47
2019-02-19T23:10:58.042Z,49.17
2019-02-19T23:13:32.846Z,45.30
2019-02-19T23:16:06.572Z,47.37
2019-02-19T23:18:40.755Z,47.17
2019-02-19T23:21:14.342Z,39.90
2019-02-19T23:23:48.794Z,40.70
2019-02-19T23:26:24.904Z,41.80
2019-02-19T23:28:58.856Z,49.43
2019-02-19T23:31:32.396Z,39.60
2019-02-19T23:34:06.455Z,46.57
2019-02-19T23:36:53.440Z,55.07
2019-02-19T23:39:27.378Z,44.67
2019-02-19T23:42:03.274Z,62.20
2019-02-19T23:44:37.387Z,44.77
2019-02-19T23:47:12.105Z,48.97
2019-02-19T23:49:46.415Z,42.20
2019-02-19T23:52:19.885Z,37.20
2019-02-19T23:54:53.866Z,50.07
2019-02-19T23:57:27.363Z,45.50
